Kezdőlap
METAR-TAF:

METAR-TAF

Repülőterek :

Brescia-Ghedi, Olaszország

földrajzi szélesség: 45-25N, földrajzi hosszúság: 010-17E, magasság: 102 m

Jelenlegi meteorológiai megfigyelések

A jelentés 1 órával és 15 perccel ezelõtt készült, 23:55 UTC
Északnyugati szél 7 kt
Hőmérséklet 4°C
Páratartalom 87%
Légköri nyomás 1005 hPa
Látótávolság: 2500 m
Párásság

METAR: LIPL 282355Z 32007KT 2500 BR NSC 04/02 Q1005 RMK SKC VIS MIN 2500 WIND THR31 /////KT WIND THR13 32007KT YLO

Idő: 02:10 (01:10 UTC)

Előrejelzés

A jelentés 2 órával és 10 perccel ezelõtt készült, 23:00 UTC
Az előrejelzés 29-én 00 óra UTC és 29-én 09 óra UTC között érvényes
Nyugat-északnyugati szél 4 kt
Látótávolság: 2000 m
Párásság
29-én 00 óra UTC és 29-én 03 óra UTC között ideiglenes
Látótávolság: 0800 m
Szakadozott felhőzet 200 lábon
köd

TAF: LIPL 282300Z 2900/2909 29004KT 2000 BR NSC TEMPO 2900/2903 0800 FG BKN002

Meteorológiai megfigyelések és előrejelzések több, mint 4000 repülőtéren (METAR és TAF jelentéseket).

A térképen piros és sárga pontok jelzik az elérhető meteorológiai állomásokat.

Mozgassa az egeret a pont fölött, hogy megjelenjen az állomás neve.

Azután kattintson az időjárási megfigyelések és előrejelzések megtekintéséhez.

A térkép megváltoztatása: kattintson a fekete keresztel jelölt zöld gombra ráközelítéshez, a vonallal jelölt zöld gombra távolításhoz, vagy a zöld nyilakra a szomszédos térképek eléréséhez.


METAR-TAF: